Time;durP1;ratioP1;P1;durP2;ratioP2;P2;SDS_P1;SDS_P2;PMS_P1;PMS_P2;Temp;Humidity;BMP_temperature;BMP_pressure;BME280_temperature;BME280_humidity;BME280_pressure;Samples;Min_cycle;Max_cycle;Signal;HPM_P1;HPM_P2
2023/09/27 00:04:38;;;;;;;;;;;20.90;57.90;;;;;;10228671;28;94623;-41
2023/09/27 00:09:40;;;;;;;;;;;20.90;57.70;;;;;;10238300;28;95914;-43
2023/09/27 00:14:42;;;;;;;;;;;21.00;57.60;;;;;;10230194;28;95214;-42
2023/09/27 00:19:44;;;;;;;;;;;21.00;57.60;;;;;;10236931;28;94428;-41
2023/09/27 00:24:45;;;;;;;;;;;21.00;57.40;;;;;;10239021;28;93760;-43
2023/09/27 00:29:48;;;;;;;;;;;21.00;57.20;;;;;;10236430;28;94563;-42
2023/09/27 00:34:49;;;;;;;;;;;21.00;57.20;;;;;;10248434;28;93508;-42
2023/09/27 00:39:51;;;;;;;;;;;21.00;57.20;;;;;;10220205;28;96135;-42
2023/09/27 00:44:53;;;;;;;;;;;21.00;56.90;;;;;;10238753;28;94892;-42
2023/09/27 00:49:55;;;;;;;;;;;21.00;56.90;;;;;;10234715;28;93245;-41
2023/09/27 00:54:57;;;;;;;;;;;21.00;56.70;;;;;;10241960;28;94869;-41
2023/09/27 00:59:58;;;;;;;;;;;21.00;56.60;;;;;;10244765;28;94444;-44
2023/09/27 01:05:00;;;;;;;;;;;21.10;56.50;;;;;;10240228;28;94532;-42
2023/09/27 01:10:03;;;;;;;;;;;21.00;56.40;;;;;;10236458;28;94644;-42
2023/09/27 01:15:07;;;;;;;;;;;21.00;56.30;;;;;;10236020;28;93682;-41
2023/09/27 01:20:12;;;;;;;;;;;21.10;56.20;;;;;;10234386;28;94923;-40
2023/09/27 01:25:15;;;;;;;;;;;21.10;56.10;;;;;;10237885;28;94948;-40
2023/09/27 01:30:16;;;;;;;;;;;21.00;55.90;;;;;;10219769;28;96849;-42
2023/09/27 01:35:18;;;;;;;;;;;21.10;56.10;;;;;;10236664;28;94136;-42
2023/09/27 01:40:23;;;;;;;;;;;21.10;56.00;;;;;;10233371;28;94707;-41
2023/09/27 01:45:25;;;;;;;;;;;21.10;56.00;;;;;;10245103;28;93097;-45
2023/09/27 01:50:27;;;;;;;;;;;21.00;55.70;;;;;;10234722;28;94500;-42
2023/09/27 01:55:29;;;;;;;;;;;21.00;55.70;;;;;;10233737;28;93988;-41
2023/09/27 02:00:31;;;;;;;;;;;21.00;55.70;;;;;;10245704;28;93517;-42
2023/09/27 02:05:32;;;;;;;;;;;21.00;55.70;;;;;;10235279;28;92677;-41
2023/09/27 02:10:34;;;;;;;;;;;21.00;55.60;;;;;;10236351;28;94726;-40
2023/09/27 02:15:36;;;;;;;;;;;21.00;55.60;;;;;;10235412;28;94210;-41
2023/09/27 02:20:38;;;;;;;;;;;21.00;55.70;;;;;;10230818;28;96820;-42
2023/09/27 02:25:39;;;;;;;;;;;21.00;55.50;;;;;;10235235;28;93381;-43
2023/09/27 02:30:42;;;;;;;;;;;21.00;55.40;;;;;;10235509;28;94662;-41
2023/09/27 02:35:44;;;;;;;;;;;21.00;55.60;;;;;;10231968;28;94439;-42
2023/09/27 02:40:45;;;;;;;;;;;20.90;55.40;;;;;;10233365;28;94430;-40
2023/09/27 02:45:49;;;;;;;;;;;20.90;55.30;;;;;;10232647;28;93835;-42
2023/09/27 02:50:55;;;;;;;;;;;20.90;55.30;;;;;;10231541;28;93584;-42
2023/09/27 02:55:58;;;;;;;;;;;20.90;55.30;;;;;;10237910;28;94316;-40
2023/09/27 03:00:59;;;;;;;;;;;20.90;55.20;;;;;;10239756;28;93409;-42
2023/09/27 03:06:01;;;;;;;;;;;20.90;55.10;;;;;;10240067;28;94455;-40
2023/09/27 03:11:03;;;;;;;;;;;20.90;55.20;;;;;;10240270;28;96808;-42
2023/09/27 03:16:06;;;;;;;;;;;20.90;55.10;;;;;;10238840;28;94987;-41
2023/09/27 03:21:07;;;;;;;;;;;20.90;55.00;;;;;;10237892;28;94654;-43
2023/09/27 03:26:09;;;;;;;;;;;20.90;55.00;;;;;;10238519;28;94741;-40
2023/09/27 03:31:11;;;;;;;;;;;20.90;55.00;;;;;;10238560;28;93496;-40
2023/09/27 03:36:13;;;;;;;;;;;20.90;55.00;;;;;;10231998;28;95132;-42
2023/09/27 03:41:14;;;;;;;;;;;20.90;55.00;;;;;;10238652;28;94457;-44
2023/09/27 03:46:16;;;;;;;;;;;20.90;54.90;;;;;;10238739;28;93810;-41
2023/09/27 03:51:24;;;;;;;;;;;20.90;54.90;;;;;;10236715;28;94464;-42
2023/09/27 03:56:26;;;;;;;;;;;20.90;54.90;;;;;;10224895;28;93420;-44
2023/09/27 04:01:28;;;;;;;;;;;20.80;54.90;;;;;;10238331;28;97253;-41
2023/09/27 04:06:29;;;;;;;;;;;20.90;54.80;;;;;;10235362;28;93010;-41
2023/09/27 04:11:31;;;;;;;;;;;20.90;54.80;;;;;;10240183;28;93680;-43
2023/09/27 04:16:33;;;;;;;;;;;20.90;54.80;;;;;;10239488;28;94714;-42
2023/09/27 04:21:35;;;;;;;;;;;20.90;55.70;;;;;;10251229;28;94978;-40
2023/09/27 04:26:37;;;;;;;;;;;20.90;54.80;;;;;;10244092;28;95484;-41
2023/09/27 04:31:39;;;;;;;;;;;20.90;54.90;;;;;;10221262;28;94643;-41
2023/09/27 04:36:40;;;;;;;;;;;20.90;55.00;;;;;;10239562;28;93826;-40
2023/09/27 04:41:43;;;;;;;;;;;20.90;54.70;;;;;;10244540;28;93523;-44
2023/09/27 04:52:05;;;;;;;;;;;20.90;54.70;;;;;;9857844;22;96519;-43
2023/09/27 04:57:07;;;;;;;;;;;20.90;54.80;;;;;;10231150;28;94806;-41
2023/09/27 05:02:08;;;;;;;;;;;20.90;54.40;;;;;;10234906;28;93999;-40
2023/09/27 05:07:10;;;;;;;;;;;20.90;54.40;;;;;;10232933;28;93522;-40
2023/09/27 05:12:12;;;;;;;;;;;21.00;54.30;;;;;;10232888;28;94449;-42
2023/09/27 05:17:14;;;;;;;;;;;20.90;54.20;;;;;;10233920;28;94251;-41
2023/09/27 05:22:19;;;;;;;;;;;20.90;54.20;;;;;;10233030;28;93981;-43
2023/09/27 05:27:20;;;;;;;;;;;20.90;54.10;;;;;;10248942;28;92724;-42
2023/09/27 05:32:23;;;;;;;;;;;20.90;54.40;;;;;;10231917;28;93509;-42
2023/09/27 05:37:25;;;;;;;;;;;20.90;55.60;;;;;;10229984;28;93436;-42
2023/09/27 05:42:27;;;;;;;;;;;20.90;55.60;;;;;;10232685;28;97252;-43
2023/09/27 05:47:29;;;;;;;;;;;20.90;55.50;;;;;;10235569;28;93443;-42
2023/09/27 05:52:31;;;;;;;;;;;20.90;55.60;;;;;;10215953;28;94456;-42
2023/09/27 05:57:33;;;;;;;;;;;20.80;56.00;;;;;;10233141;28;93828;-41
2023/09/27 06:02:34;;;;;;;;;;;20.90;56.10;;;;;;10234119;28;95460;-43
2023/09/27 06:07:36;;;;;;;;;;;20.80;56.10;;;;;;10234478;28;94505;-41
2023/09/27 06:12:38;;;;;;;;;;;20.80;56.40;;;;;;10233774;28;94537;-41
2023/09/27 06:17:42;;;;;;;;;;;20.80;56.50;;;;;;10234921;28;93760;-41
2023/09/27 06:22:47;;;;;;;;;;;20.80;56.80;;;;;;10231303;28;93579;-43
2023/09/27 06:27:49;;;;;;;;;;;20.70;56.90;;;;;;10229545;28;94722;-40
2023/09/27 06:32:50;;;;;;;;;;;20.80;57.10;;;;;;10230114;28;96314;-44
2023/09/27 06:37:52;;;;;;;;;;;20.80;57.30;;;;;;10233768;28;94739;-41
2023/09/27 06:42:54;;;;;;;;;;;20.80;57.60;;;;;;10233714;28;94444;-44
2023/09/27 06:47:56;;;;;;;;;;;20.70;57.50;;;;;;10233489;28;94385;-43
2023/09/27 06:52:58;;;;;;;;;;;20.80;57.80;;;;;;10233103;28;93512;-41
2023/09/27 06:58:13;;;;;;;;;;;20.70;57.80;;;;;;10232347;28;93577;-43
2023/09/27 07:03:15;;;;;;;;;;;20.70;58.00;;;;;;10231066;28;94588;-43
2023/09/27 07:08:17;;;;;;;;;;;20.70;58.20;;;;;;10233314;28;94083;-41
2023/09/27 07:13:19;;;;;;;;;;;20.70;58.20;;;;;;10233341;28;94619;-42
2023/09/27 07:18:21;;;;;;;;;;;20.70;58.40;;;;;;10232535;28;94412;-41
2023/09/27 07:23:23;;;;;;;;;;;20.70;58.50;;;;;;10230090;28;96026;-41
2023/09/27 07:28:25;;;;;;;;;;;20.60;58.50;;;;;;10231404;28;93717;-40
2023/09/27 07:33:26;;;;;;;;;;;20.60;58.50;;;;;;10230541;28;94535;-41
2023/09/27 07:38:29;;;;;;;;;;;20.70;58.50;;;;;;10219359;28;94300;-41
2023/09/27 07:43:30;;;;;;;;;;;20.70;58.50;;;;;;10236660;28;94499;-44
2023/09/27 07:48:39;;;;;;;;;;;20.70;58.40;;;;;;10237456;28;94523;-44
2023/09/27 07:53:41;;;;;;;;;;;20.60;58.30;;;;;;10237498;28;94350;-41
2023/09/27 07:58:44;;;;;;;;;;;20.70;58.60;;;;;;10237978;28;92989;-41
2023/09/27 08:03:47;;;;;;;;;;;20.70;58.40;;;;;;10238967;28;93469;-41
2023/09/27 08:08:51;;;;;;;;;;;20.70;58.60;;;;;;10254912;28;94460;-40
2023/09/27 08:13:54;;;;;;;;;;;20.70;58.90;;;;;;10237255;28;95907;-41
2023/09/27 08:18:56;;;;;;;;;;;20.70;59.00;;;;;;10239750;28;94562;-40
2023/09/27 08:23:58;;;;;;;;;;;20.70;59.10;;;;;;10241274;28;94506;-40
2023/09/27 08:29:01;;;;;;;;;;;20.70;59.10;;;;;;10238447;28;93995;-40
2023/09/27 08:34:04;;;;;;;;;;;20.70;59.20;;;;;;10240315;28;94372;-40
2023/09/27 08:39:05;;;;;;;;;;;20.70;59.40;;;;;;10240252;28;93215;-43
2023/09/27 08:44:07;;;;;;;;;;;20.80;59.60;;;;;;10240607;28;95697;-43
2023/09/27 08:49:11;;;;;;;;;;;20.80;59.70;;;;;;10237602;28;93882;-40
2023/09/27 08:54:17;;;;;;;;;;;20.80;59.60;;;;;;10241511;28;95766;-43
2023/09/27 08:59:20;;;;;;;;;;;20.80;59.60;;;;;;10230638;28;93417;-45
2023/09/27 09:04:22;;;;;;;;;;;20.80;59.40;;;;;;10237717;28;97073;-42
2023/09/27 09:09:26;;;;;;;;;;;20.80;59.40;;;;;;10240490;28;94518;-41
2023/09/27 09:14:37;;;;;;;;;;;20.90;59.50;;;;;;10238968;28;94461;-40
2023/09/27 09:19:41;;;;;;;;;;;20.90;59.50;;;;;;10239517;28;94056;-42
2023/09/27 09:24:46;;;;;;;;;;;20.90;59.50;;;;;;10238210;28;93655;-42
2023/09/27 09:29:48;;;;;;;;;;;20.90;59.60;;;;;;10238113;28;93250;-40
2023/09/27 09:34:51;;;;;;;;;;;20.90;59.60;;;;;;10238628;28;93471;-40
2023/09/27 09:39:53;;;;;;;;;;;20.90;59.40;;;;;;10237998;28;93725;-41
2023/09/27 09:44:59;;;;;;;;;;;20.90;59.30;;;;;;10238192;28;93454;-42
2023/09/27 09:50:06;;;;;;;;;;;21.00;59.10;;;;;;10236188;28;95439;-40
2023/09/27 09:55:08;;;;;;;;;;;20.90;58.70;;;;;;10250897;28;96109;-41
2023/09/27 10:00:30;;;;;;;;;;;21.00;58.40;;;;;;10235723;28;95656;-40
2023/09/27 10:05:38;;;;;;;;;;;20.90;58.00;;;;;;10226391;28;93591;-40
2023/09/27 10:10:40;;;;;;;;;;;21.00;57.70;;;;;;10237561;28;93897;-40
2023/09/27 10:15:43;;;;;;;;;;;21.00;57.60;;;;;;10246106;28;94407;-40
2023/09/27 10:21:00;;;;;;;;;;;20.90;57.40;;;;;;10236301;28;94534;-41
2023/09/27 10:26:20;;;;;;;;;;;21.00;57.20;;;;;;10237224;28;94506;-41
2023/09/27 10:31:22;;;;;;;;;;;21.00;57.10;;;;;;10237314;28;92702;-43
2023/09/27 10:36:23;;;;;;;;;;;20.90;56.90;;;;;;10237031;28;94618;-41
2023/09/27 10:41:31;;;;;;;;;;;21.00;56.90;;;;;;10237732;28;93912;-46
2023/09/27 10:46:43;;;;;;;;;;;20.90;56.70;;;;;;10225389;28;97027;-41
2023/09/27 10:51:44;;;;;;;;;;;20.90;56.60;;;;;;10210017;28;93568;-40
2023/09/27 10:57:01;;;;;;;;;;;20.90;56.50;;;;;;10231044;28;114603;-42
2023/09/27 11:02:03;;;;;;;;;;;21.00;56.30;;;;;;10233167;28;94669;-42
2023/09/27 11:07:05;;;;;;;;;;;21.00;56.30;;;;;;10230984;28;94751;-45
2023/09/27 11:12:06;;;;;;;;;;;21.00;56.10;;;;;;10230775;28;93452;-42
2023/09/27 11:17:17;;;;;;;;;;;21.00;56.10;;;;;;10238861;28;94584;-40
2023/09/27 11:22:28;;;;;;;;;;;20.90;56.00;;;;;;10232957;28;93840;-42
2023/09/27 11:27:30;;;;;;;;;;;21.00;56.00;;;;;;10238038;28;94246;-43
2023/09/27 11:32:47;;;;;;;;;;;21.00;55.90;;;;;;10237270;28;93454;-42
2023/09/27 11:38:02;;;;;;;;;;;21.00;55.80;;;;;;10235276;28;96837;-41
2023/09/27 11:43:05;;;;;;;;;;;21.00;55.80;;;;;;10239742;28;94198;-40
2023/09/27 11:48:06;;;;;;;;;;;21.00;55.70;;;;;;10239770;28;94141;-41
2023/09/27 11:53:08;;;;;;;;;;;21.00;55.70;;;;;;10240177;28;94513;-41
2023/09/27 11:58:10;;;;;;;;;;;21.00;55.60;;;;;;10240452;28;94468;-40
2023/09/27 12:03:12;;;;;;;;;;;21.10;55.70;;;;;;10240488;28;94141;-45
2023/09/27 12:08:14;;;;;;;;;;;21.10;55.60;;;;;;10239465;28;95286;-41
2023/09/27 12:13:16;;;;;;;;;;;21.20;55.60;;;;;;10239475;28;93010;-40
2023/09/27 12:18:18;;;;;;;;;;;21.20;55.50;;;;;;10234240;28;94305;-41
2023/09/27 12:23:20;;;;;;;;;;;21.20;55.50;;;;;;10242536;28;94382;-42
2023/09/27 12:28:22;;;;;;;;;;;21.30;55.50;;;;;;10209787;28;97401;-42
2023/09/27 12:33:24;;;;;;;;;;;21.30;55.40;;;;;;10238698;28;93411;-42
2023/09/27 12:38:26;;;;;;;;;;;21.30;55.40;;;;;;10236988;28;94541;-41
2023/09/27 12:43:28;;;;;;;;;;;21.30;55.40;;;;;;10236235;28;93540;-41
2023/09/27 12:48:30;;;;;;;;;;;21.30;55.40;;;;;;10229251;28;92807;-43
2023/09/27 12:53:36;;;;;;;;;;;21.40;55.30;;;;;;10234548;28;93467;-43
2023/09/27 12:58:37;;;;;;;;;;;21.40;55.20;;;;;;10235070;28;94239;-40
2023/09/27 13:03:39;;;;;;;;;;;21.40;55.10;;;;;;10236180;28;92667;-43
2023/09/27 13:08:41;;;;;;;;;;;21.40;55.10;;;;;;10234941;28;94543;-41
2023/09/27 13:13:43;;;;;;;;;;;21.40;55.10;;;;;;10234955;28;93298;-41
2023/09/27 13:18:47;;;;;;;;;;;21.40;55.10;;;;;;10231879;28;96938;-43
2023/09/27 13:23:50;;;;;;;;;;;21.50;55.10;;;;;;10235328;28;93881;-45
2023/09/27 13:28:52;;;;;;;;;;;21.50;55.10;;;;;;10251073;28;94579;-43
2023/09/27 13:33:54;;;;;;;;;;;21.50;55.00;;;;;;10238588;28;95175;-41
2023/09/27 13:39:16;;;;;;;;;;;21.50;55.00;;;;;;10237529;28;94934;-44
2023/09/27 13:44:19;;;;;;;;;;;21.50;55.00;;;;;;10237404;28;94802;-40
2023/09/27 13:49:21;;;;;;;;;;;21.50;55.00;;;;;;10236247;28;94434;-43
2023/09/27 13:54:23;;;;;;;;;;;21.50;55.00;;;;;;10250827;28;93821;-41
2023/09/27 13:59:25;;;;;;;;;;;21.50;54.90;;;;;;10236428;28;94025;-40
2023/09/27 14:04:27;;;;;;;;;;;21.50;54.90;;;;;;10237175;28;94483;-40
2023/09/27 14:09:29;;;;;;;;;;;21.50;54.90;;;;;;10234794;28;96653;-40
2023/09/27 14:14:31;;;;;;;;;;;21.50;54.90;;;;;;10237388;28;94392;-42
2023/09/27 14:19:33;;;;;;;;;;;21.50;54.80;;;;;;10236381;28;94533;-43
2023/09/27 14:24:36;;;;;;;;;;;21.40;54.90;;;;;;10236298;28;93429;-40
2023/09/27 14:29:38;;;;;;;;;;;21.40;54.90;;;;;;10236605;28;94407;-44
2023/09/27 14:34:40;;;;;;;;;;;21.40;54.80;;;;;;10234466;28;96176;-42
2023/09/27 14:39:58;;;;;;;;;;;21.40;54.80;;;;;;10237122;28;94553;-43
2023/09/27 14:45:00;;;;;;;;;;;21.40;54.90;;;;;;10235193;28;92697;-41
2023/09/27 14:50:05;;;;;;;;;;;21.40;54.80;;;;;;10241177;28;93493;-43
2023/09/27 14:55:07;;;;;;;;;;;21.30;54.70;;;;;;10241847;28;94491;-40
2023/09/27 15:00:11;;;;;;;;;;;21.30;54.70;;;;;;10240285;28;97010;-44
2023/09/27 15:05:13;;;;;;;;;;;21.30;54.70;;;;;;10244173;28;94046;-39
2023/09/27 15:10:15;;;;;;;;;;;21.30;54.60;;;;;;10240642;28;93420;-40
2023/09/27 15:15:17;;;;;;;;;;;21.30;54.60;;;;;;10241429;28;93054;-41
2023/09/27 15:20:19;;;;;;;;;;;21.30;54.50;;;;;;10243388;28;94413;-41
2023/09/27 15:25:21;;;;;;;;;;;21.30;54.50;;;;;;10242652;28;95793;-44
2023/09/27 15:30:22;;;;;;;;;;;21.30;54.50;;;;;;10243679;28;94801;-40
2023/09/27 15:35:25;;;;;;;;;;;21.30;54.50;;;;;;10243335;28;92714;-44
2023/09/27 15:40:29;;;;;;;;;;;21.30;54.50;;;;;;10233113;28;94556;-42
2023/09/27 15:45:31;;;;;;;;;;;21.30;55.30;;;;;;10233679;28;94441;-41
2023/09/27 15:50:33;;;;;;;;;;;21.30;56.20;;;;;;10235335;28;97123;-43
2023/09/27 15:55:35;;;;;;;;;;;21.40;56.60;;;;;;10233794;28;93554;-40
2023/09/27 16:06:43;;;;;;;;;;;21.60;57.10;;;;;;10229429;28;93853;-42
2023/09/27 16:11:45;;;;;;;;;;;21.70;57.60;;;;;;10237197;28;92829;-41
2023/09/27 16:16:47;;;;;;;;;;;21.80;59.40;;;;;;10235546;28;94540;-42
2023/09/27 16:21:49;;;;;;;;;;;22.10;60.90;;;;;;10235138;28;93470;-43
2023/09/27 16:26:50;;;;;;;;;;;22.20;61.90;;;;;;10235957;28;93070;-41
2023/09/27 16:31:52;;;;;;;;;;;22.20;62.40;;;;;;10235213;28;93772;-41
2023/09/27 16:36:54;;;;;;;;;;;22.20;61.90;;;;;;10231957;28;93692;-43
2023/09/27 16:41:56;;;;;;;;;;;22.20;61.80;;;;;;10239884;28;96581;-41
2023/09/27 16:46:57;;;;;;;;;;;22.20;62.20;;;;;;10237531;28;94348;-43
2023/09/27 16:51:59;;;;;;;;;;;22.20;62.40;;;;;;10228397;28;92840;-43
2023/09/27 16:57:02;;;;;;;;;;;22.10;63.60;;;;;;10238588;28;93577;-40
2023/09/27 17:02:04;;;;;;;;;;;22.10;63.40;;;;;;10244043;28;93552;-40
2023/09/27 17:07:09;;;;;;;;;;;22.00;63.50;;;;;;10238879;28;92909;-42
2023/09/27 17:12:11;;;;;;;;;;;21.90;63.60;;;;;;10241001;28;95149;-41
2023/09/27 17:17:13;;;;;;;;;;;21.90;63.90;;;;;;10231443;28;93718;-41
2023/09/27 17:22:15;;;;;;;;;;;21.90;64.40;;;;;;10228153;28;93494;-44
2023/09/27 17:27:17;;;;;;;;;;;21.80;64.90;;;;;;10237516;28;93449;-39
2023/09/27 17:32:19;;;;;;;;;;;21.80;65.00;;;;;;10225684;28;97320;-42
2023/09/27 17:37:21;;;;;;;;;;;21.70;65.00;;;;;;10233303;28;93610;-39
2023/09/27 17:42:23;;;;;;;;;;;21.70;65.30;;;;;;10232263;28;96996;-40
2023/09/27 17:47:24;;;;;;;;;;;21.70;65.20;;;;;;10205764;28;94488;-40
2023/09/27 17:52:26;;;;;;;;;;;21.70;65.50;;;;;;10232681;28;93107;-41
2023/09/27 17:57:28;;;;;;;;;;;21.70;65.50;;;;;;10234318;28;94356;-40
2023/09/27 18:02:31;;;;;;;;;;;21.70;66.00;;;;;;10229983;28;93678;-41
2023/09/27 18:07:34;;;;;;;;;;;21.70;66.00;;;;;;10238663;28;93046;-40
2023/09/27 18:12:36;;;;;;;;;;;21.70;66.10;;;;;;10235213;28;94143;-44
2023/09/27 18:17:37;;;;;;;;;;;21.70;66.10;;;;;;10232201;28;93499;-44
2023/09/27 18:22:39;;;;;;;;;;;21.70;66.20;;;;;;10230552;28;96876;-41
2023/09/27 18:27:41;;;;;;;;;;;21.70;66.10;;;;;;10234487;28;93637;-44
2023/09/27 18:32:42;;;;;;;;;;;21.70;65.80;;;;;;10227252;28;93569;-40
2023/09/27 18:37:44;;;;;;;;;;;21.70;65.90;;;;;;10233809;28;93270;-40
2023/09/27 18:42:46;;;;;;;;;;;21.60;65.90;;;;;;10234020;28;93594;-42
2023/09/27 18:47:48;;;;;;;;;;;21.60;65.80;;;;;;10236114;28;93895;-43
2023/09/27 18:52:53;;;;;;;;;;;21.60;65.70;;;;;;10238032;28;94890;-41
2023/09/27 18:57:55;;;;;;;;;;;21.60;65.90;;;;;;10237972;28;93318;-44
2023/09/27 19:02:57;;;;;;;;;;;21.60;65.70;;;;;;10243198;28;93835;-42
2023/09/27 19:07:59;;;;;;;;;;;21.60;65.70;;;;;;10235353;28;93381;-40
2023/09/27 19:13:01;;;;;;;;;;;21.60;65.80;;;;;;10231107;28;95884;-43
2023/09/27 19:18:03;;;;;;;;;;;21.50;65.70;;;;;;10236811;28;93505;-41
2023/09/27 19:23:05;;;;;;;;;;;21.50;65.60;;;;;;10233121;28;93904;-41
2023/09/27 19:28:07;;;;;;;;;;;21.50;65.60;;;;;;10233580;28;93450;-41
2023/09/27 19:33:08;;;;;;;;;;;21.50;65.60;;;;;;10233743;28;94806;-42
2023/09/27 19:38:10;;;;;;;;;;;21.50;65.50;;;;;;10242610;28;93771;-41
2023/09/27 19:43:12;;;;;;;;;;;21.50;65.60;;;;;;10239149;28;93645;-42
2023/09/27 19:48:14;;;;;;;;;;;21.50;65.50;;;;;;10250146;28;93360;-40
2023/09/27 19:53:16;;;;;;;;;;;21.40;65.40;;;;;;10237910;28;93965;-42
2023/09/27 19:58:17;;;;;;;;;;;21.50;65.40;;;;;;10242296;28;93533;-43
2023/09/27 20:03:20;;;;;;;;;;;21.40;65.40;;;;;;10241984;28;96823;-41
2023/09/27 20:08:23;;;;;;;;;;;21.40;65.30;;;;;;10239618;28;95356;-40
2023/09/27 20:13:25;;;;;;;;;;;21.40;65.20;;;;;;10230722;28;93602;-41
2023/09/27 20:18:27;;;;;;;;;;;21.40;65.10;;;;;;10244825;28;95397;-41
2023/09/27 20:23:29;;;;;;;;;;;21.50;65.20;;;;;;10237807;28;93421;-43
2023/09/27 20:28:30;;;;;;;;;;;21.50;65.20;;;;;;10244546;28;94417;-41
2023/09/27 20:33:32;;;;;;;;;;;21.50;65.30;;;;;;10247273;28;94320;-41
2023/09/27 20:38:34;;;;;;;;;;;21.50;65.40;;;;;;10244251;28;92729;-41
2023/09/27 20:43:36;;;;;;;;;;;21.40;65.30;;;;;;10237296;28;93403;-41
2023/09/27 20:48:37;;;;;;;;;;;21.40;65.30;;;;;;10251882;28;93417;-40
2023/09/27 20:53:39;;;;;;;;;;;21.40;65.20;;;;;;10242886;28;95855;-40
2023/09/27 20:58:41;;;;;;;;;;;21.40;65.10;;;;;;10225048;28;93529;-43
2023/09/27 21:03:43;;;;;;;;;;;21.40;65.10;;;;;;10234438;28;93963;-41
2023/09/27 21:08:45;;;;;;;;;;;21.40;65.10;;;;;;10248230;28;93513;-40
2023/09/27 21:13:47;;;;;;;;;;;21.40;65.10;;;;;;10247075;28;93449;-41
2023/09/27 21:18:50;;;;;;;;;;;21.40;65.10;;;;;;10240356;28;93457;-41
2023/09/27 21:23:52;;;;;;;;;;;21.40;66.10;;;;;;10239568;28;93967;-41
2023/09/27 21:28:55;;;;;;;;;;;21.40;65.00;;;;;;10251480;28;92769;-42
2023/09/27 21:33:57;;;;;;;;;;;21.40;65.00;;;;;;10236661;28;93353;-40
2023/09/27 21:38:59;;;;;;;;;;;21.40;65.00;;;;;;10235450;28;93281;-40
2023/09/27 21:44:03;;;;;;;;;;;21.40;65.00;;;;;;10247379;28;96657;-45
2023/09/27 21:49:05;;;;;;;;;;;21.30;65.00;;;;;;10234954;28;93677;-40
2023/09/27 21:54:07;;;;;;;;;;;21.30;65.00;;;;;;10235153;28;93892;-39
2023/09/27 21:59:08;;;;;;;;;;;21.30;64.90;;;;;;10235674;28;94151;-42
2023/09/27 22:04:10;;;;;;;;;;;21.40;64.90;;;;;;10237769;28;93563;-40
2023/09/27 22:09:12;;;;;;;;;;;21.30;64.80;;;;;;10235621;28;93490;-40
2023/09/27 22:14:15;;;;;;;;;;;21.30;64.90;;;;;;10235645;28;94699;-41
2023/09/27 22:19:17;;;;;;;;;;;21.30;64.90;;;;;;10234576;28;93437;-40
2023/09/27 22:24:24;;;;;;;;;;;21.30;64.90;;;;;;10234800;28;93629;-41
2023/09/27 22:29:25;;;;;;;;;;;21.30;64.90;;;;;;10234305;28;93356;-41
2023/09/27 22:34:36;;;;;;;;;;;21.30;65.00;;;;;;10232489;28;97542;-42
2023/09/27 22:39:40;;;;;;;;;;;21.30;64.90;;;;;;10236441;28;94501;-41
2023/09/27 22:44:42;;;;;;;;;;;21.30;64.90;;;;;;10232633;28;93488;-43
2023/09/27 22:49:44;;;;;;;;;;;21.30;64.80;;;;;;10232453;28;93279;-41
2023/09/27 22:54:46;;;;;;;;;;;21.20;64.80;;;;;;10234355;28;94509;-42
2023/09/27 22:59:49;;;;;;;;;;;21.20;64.80;;;;;;10233383;28;93495;-42
2023/09/27 23:04:51;;;;;;;;;;;21.20;64.80;;;;;;10233385;28;94457;-41
2023/09/27 23:10:03;;;;;;;;;;;21.20;64.90;;;;;;10236078;28;93030;-41
2023/09/27 23:15:12;;;;;;;;;;;21.20;64.80;;;;;;10240887;28;93334;-43
2023/09/27 23:20:14;;;;;;;;;;;21.20;64.90;;;;;;10239825;28;93874;-39
2023/09/27 23:30:49;;;;;;;;;;;21.20;65.80;;;;;;10240559;28;96384;-42
2023/09/27 23:35:51;;;;;;;;;;;21.20;64.80;;;;;;10240896;28;94444;-42
2023/09/27 23:40:53;;;;;;;;;;;21.20;64.80;;;;;;10239249;28;93595;-42
2023/09/27 23:45:55;;;;;;;;;;;21.20;64.50;;;;;;10239454;28;94530;-39
2023/09/27 23:50:57;;;;;;;;;;;21.20;64.10;;;;;;10239215;28;93440;-40
2023/09/27 23:55:59;;;;;;;;;;;21.20;63.50;;;;;;10238465;28;93546;-40
